»·PEaware :: N17SJ KSAN-KSEE

N17SJ :: KSAN-KSEE

FLIGHT INFORMATION

Flight Status: Arrived
Operator: Privately registered:
United States
More flights under this callsign
Pilot: Caleb A. (30650)
Aircraft: CESSNA 172 SKYHAWK
(C172)
More flights by this aircraft type
Origin: KSAN San Diego Intl-Lindbergh
United States
Destination: KSEE Gillespie
United States
More flights between these airports :: More routes between these airports
Route: +V66 BARET
File this flight plan on PilotEdge
Remarks:
Altitude:
(Current/Filed)
10,000ft
Speed:
(Current/Filed)
110kts
Departed: 05-Aug-20 05:16 PM
Arrived: 05-Aug-20 05:59 PM
Distance/Time
Traveled:
12nm/0:43
Distance/Time
To Go:
Arrived

Flight Plot

Page will automatically refresh every two minutes.

Flight plan parsing failed; only flown route is shown


Map Options




Map Legend


Flown Route
Filed Route
Departure Airport
Arrival Airport
Navaid (VOR, NDB)
Fix

Horizontal Profiles

Position Reports

Time Latitude Longitude Heading Altitude Ground
Speed
05-Aug-20 16:56 32.734272 -117.185249 196 17ft 0kts
05-Aug-20 16:57 32.734272 -117.185249 196 17ft 0kts
05-Aug-20 16:58 32.734272 -117.185249 196 17ft 0kts
05-Aug-20 16:59 32.734272 -117.185249 196 17ft 0kts
05-Aug-20 17:00 32.734272 -117.185249 196 17ft 0kts
05-Aug-20 17:01 32.734272 -117.185249 196 17ft 0kts
05-Aug-20 17:02 32.734272 -117.185249 196 17ft 0kts
05-Aug-20 17:03 32.734272 -117.185249 196 17ft 0kts
05-Aug-20 17:04 32.734272 -117.185249 196 17ft 0kts
05-Aug-20 17:05 32.734272 -117.185249 196 17ft 0kts
05-Aug-20 17:06 32.734272 -117.185249 196 17ft 0kts
05-Aug-20 17:07 32.734272 -117.185249 196 17ft 0kts
05-Aug-20 17:08 32.734272 -117.185249 196 17ft 0kts
05-Aug-20 17:09 32.734272 -117.185249 196 17ft 0kts
05-Aug-20 17:09 32.734272 -117.185249 196 17ft 0kts
05-Aug-20 17:11 32.734272 -117.185249 196 17ft 0kts
05-Aug-20 17:12 32.734116 -117.185315 193 17ft 8kts
05-Aug-20 17:13 32.732096 -117.178943 102 20ft 0kts
05-Aug-20 17:14 32.730928 -117.175498 135 21ft 0kts
05-Aug-20 17:14 32.730928 -117.175498 135 21ft 0kts
05-Aug-20 17:16 32.730329 -117.176848 292 20ft 41kts
05-Aug-20 17:17 32.735004 -117.193894 303 550ft 77kts
05-Aug-20 17:17 32.750116 -117.206857 319 1278ft 76kts
05-Aug-20 17:19 32.771785 -117.223778 315 2214ft 76kts
05-Aug-20 17:19 32.786749 -117.235769 321 2810ft 81kts
05-Aug-20 17:20 32.805612 -117.249960 323 3544ft 79kts
05-Aug-20 17:21 32.819373 -117.233762 105 4235ft 97kts
05-Aug-20 17:22 32.809454 -117.203888 115 4897ft 95kts
05-Aug-20 17:23 32.800768 -117.172527 94 5495ft 95kts
05-Aug-20 17:24 32.793137 -117.140864 111 6039ft 98kts
05-Aug-20 17:25 32.785085 -117.109063 108 6574ft 99kts
05-Aug-20 17:26 32.778776 -117.076513 88 7049ft 103kts
05-Aug-20 17:27 32.779910 -117.041871 87 7303ft 112kts
05-Aug-20 17:28 32.780923 -117.004322 87 7351ft 125kts
05-Aug-20 17:29 32.780315 -116.961881 97 7361ft 130kts
05-Aug-20 17:30 32.773903 -116.918541 101 7383ft 130kts
05-Aug-20 17:31 32.774920 -116.873342 87 7371ft 132kts
05-Aug-20 17:32 32.775308 -116.827805 88 7323ft 136kts
05-Aug-20 17:33 32.773555 -116.781458 86 7372ft 132kts
05-Aug-20 17:34 32.773253 -116.735140 92 7352ft 136kts
05-Aug-20 17:35 32.770816 -116.689769 91 7417ft 128kts
05-Aug-20 17:36 32.763661 -116.646458 109 7372ft 121kts
05-Aug-20 17:37 32.750649 -116.610378 140 7361ft 120kts
05-Aug-20 17:38 32.727315 -116.582266 139 7322ft 125kts
05-Aug-20 17:39 32.709988 -116.549026 78 7294ft 127kts
05-Aug-20 17:40 32.735770 -116.543160 320 7403ft 115kts
05-Aug-20 17:41 32.755853 -116.570439 272 7372ft 117kts
05-Aug-20 17:42 32.761193 -116.605156 282 7370ft 96kts
05-Aug-20 17:43 32.766282 -116.637812 277 7352ft 96kts
05-Aug-20 17:44 32.772287 -116.668077 279 7348ft 94kts
05-Aug-20 17:45 32.777884 -116.698421 276 7087ft 93kts
05-Aug-20 17:46 32.783555 -116.728747 288 6729ft 99kts
05-Aug-20 17:47 32.788461 -116.759969 277 6704ft 96kts
05-Aug-20 17:48 32.794576 -116.791131 291 6684ft 89kts
05-Aug-20 17:49 32.799174 -116.823067 268 5631ft 102kts
05-Aug-20 17:50 32.806389 -116.856657 284 3989ft 111kts
05-Aug-20 17:51 32.812676 -116.889177 286 2855ft 92kts
05-Aug-20 17:52 32.817452 -116.918187 285 2700ft 92kts
05-Aug-20 17:53 32.823324 -116.946512 284 1960ft 85kts
05-Aug-20 17:54 32.828146 -116.975772 262 973ft 91kts
05-Aug-20 17:55 32.808458 -116.974002 128 906ft 101kts
05-Aug-20 17:56 32.809318 -116.949253 357 1093ft 63kts
05-Aug-20 17:57 32.825090 -116.956999 290 662ft 61kts
05-Aug-20 17:58 32.827724 -116.971227 282 372ft 20kts
05-Aug-20 17:59 32.828037 -116.974239 330 366ft 0kts
05-Aug-20 18:00 32.826475 -116.976345 192 365ft 0kts

Navigation Log

Ident Type
Flight plan parsing failed, navigation log unavailable